createdAt,value
2018-10-11T00:01:42.900Z,100.00
2018-10-11T00:04:11.293Z,100.00
2018-10-11T00:06:39.738Z,100.00
2018-10-11T00:09:09.264Z,100.00
2018-10-11T00:11:37.714Z,100.00
2018-10-11T00:14:06.279Z,100.00
2018-10-11T00:16:34.668Z,100.00
2018-10-11T00:19:03.067Z,100.00
2018-10-11T00:21:31.502Z,100.00
2018-10-11T00:23:59.928Z,100.00
2018-10-11T00:26:28.349Z,100.00
2018-10-11T00:28:56.735Z,100.00
2018-10-11T00:31:25.122Z,100.00
2018-10-11T00:33:53.627Z,100.00
2018-10-11T00:36:22.028Z,100.00
2018-10-11T00:38:50.446Z,100.00
2018-10-11T00:41:18.851Z,100.00
2018-10-11T00:43:47.278Z,100.00
2018-10-11T00:46:15.724Z,100.00
2018-10-11T00:48:44.308Z,100.00
2018-10-11T00:51:12.746Z,100.00
2018-10-11T00:53:41.219Z,100.00
2018-10-11T00:56:09.649Z,100.00
2018-10-11T00:58:38.167Z,100.00
2018-10-11T01:01:06.581Z,100.00
2018-10-11T01:03:35.011Z,100.00
2018-10-11T01:06:03.440Z,100.00
2018-10-11T01:08:31.862Z,100.00
2018-10-11T01:11:00.228Z,100.00
2018-10-11T01:13:28.629Z,100.00
2018-10-11T01:15:57.022Z,100.00
2018-10-11T01:18:25.784Z,100.00
2018-10-11T01:20:54.506Z,100.00
2018-10-11T01:23:23.412Z,100.00
2018-10-11T01:25:51.865Z,100.00
2018-10-11T01:28:20.297Z,100.00
2018-10-11T01:30:53.941Z,100.00
2018-10-11T01:33:22.441Z,100.00
2018-10-11T01:35:50.945Z,100.00
2018-10-11T01:38:19.474Z,100.00
2018-10-11T01:40:48.018Z,100.00
2018-10-11T01:43:16.465Z,100.00
2018-10-11T01:45:45.101Z,100.00
2018-10-11T01:48:13.465Z,100.00
2018-10-11T01:50:41.879Z,100.00
2018-10-11T01:53:10.288Z,100.00
2018-10-11T01:55:38.713Z,100.00
2018-10-11T01:58:07.145Z,100.00
2018-10-11T02:00:35.616Z,100.00
2018-10-11T02:03:04.386Z,100.00
2018-10-11T02:05:32.849Z,100.00
2018-10-11T02:08:01.329Z,100.00
2018-10-11T02:10:29.920Z,100.00
2018-10-11T02:12:59.069Z,100.00
2018-10-11T02:15:28.459Z,100.00
2018-10-11T02:17:57.598Z,100.00
2018-10-11T02:20:27.179Z,100.00
2018-10-11T02:22:55.636Z,100.00
2018-10-11T02:25:24.169Z,100.00
2018-10-11T02:27:52.622Z,100.00
2018-10-11T02:30:21.024Z,100.00
2018-10-11T02:32:49.415Z,100.00
2018-10-11T02:35:18.029Z,100.00
2018-10-11T02:37:46.446Z,100.00
2018-10-11T02:40:14.850Z,100.00
2018-10-11T02:42:43.509Z,100.00
2018-10-11T02:45:11.919Z,100.00
2018-10-11T02:47:40.358Z,100.00
2018-10-11T02:50:08.985Z,100.00
2018-10-11T02:52:37.379Z,100.00
2018-10-11T02:55:06.014Z,100.00
2018-10-11T02:57:45.588Z,100.00
2018-10-11T03:00:14.048Z,100.00
2018-10-11T03:02:44.168Z,100.00
2018-10-11T03:05:14.538Z,100.00
2018-10-11T03:07:43.829Z,100.00
2018-10-11T03:10:12.309Z,100.00
2018-10-11T03:12:40.850Z,100.00
2018-10-11T03:15:09.544Z,100.00
2018-10-11T03:17:37.956Z,100.00
2018-10-11T03:20:06.611Z,100.00
2018-10-11T03:22:35.043Z,100.00
2018-10-11T03:25:03.513Z,100.00
2018-10-11T03:27:31.886Z,100.00
2018-10-11T03:30:00.293Z,100.00
2018-10-11T03:32:28.659Z,100.00
2018-10-11T03:34:57.717Z,100.00
2018-10-11T03:37:26.109Z,100.00
2018-10-11T03:39:54.509Z,100.00
2018-10-11T03:42:22.867Z,100.00
2018-10-11T03:44:51.249Z,100.00
2018-10-11T03:47:19.621Z,100.00
2018-10-11T03:49:48.057Z,100.00
2018-10-11T03:52:16.467Z,100.00
2018-10-11T03:54:44.874Z,100.00
2018-10-11T03:57:13.237Z,100.00
2018-10-11T03:59:41.713Z,100.00
2018-10-11T04:02:10.151Z,100.00
2018-10-11T04:04:38.587Z,100.00
2018-10-11T04:07:06.996Z,100.00
2018-10-11T04:09:35.394Z,100.00
2018-10-11T04:12:03.829Z,100.00
2018-10-11T04:14:32.205Z,100.00
2018-10-11T04:17:00.581Z,100.00
2018-10-11T04:19:28.979Z,100.00
2018-10-11T04:21:57.386Z,100.00
2018-10-11T04:24:25.759Z,100.00
2018-10-11T04:26:54.217Z,100.00
2018-10-11T04:29:22.593Z,100.00
2018-10-11T04:31:51.016Z,100.00
2018-10-11T04:34:19.428Z,100.00
2018-10-11T04:36:47.821Z,100.00
2018-10-11T04:39:16.220Z,100.00
2018-10-11T04:41:44.633Z,100.00
2018-10-11T04:44:13.016Z,100.00
2018-10-11T04:46:41.636Z,100.00
2018-10-11T04:51:51.253Z,100.00
2018-10-11T04:54:19.658Z,100.00
2018-10-11T04:56:48.109Z,100.00
2018-10-11T04:59:16.590Z,100.00
2018-10-11T05:01:45.055Z,100.00
2018-10-11T05:04:13.449Z,100.00
2018-10-11T05:06:41.893Z,100.00
2018-10-11T05:09:10.422Z,100.00
2018-10-11T05:11:39.637Z,100.00
2018-10-11T05:14:08.530Z,100.00
2018-10-11T05:16:36.990Z,100.00
2018-10-11T05:19:05.537Z,100.00
2018-10-11T05:21:34.035Z,100.00
2018-10-11T05:24:02.449Z,100.00
2018-10-11T05:26:30.856Z,100.00
2018-10-11T05:28:59.288Z,100.00
2018-10-11T05:31:28.688Z,100.00
2018-10-11T05:33:57.139Z,100.00
2018-10-11T05:36:25.558Z,100.00
2018-10-11T05:38:53.933Z,100.00
2018-10-11T05:41:22.383Z,100.00
2018-10-11T05:43:50.800Z,100.00
2018-10-11T05:46:27.570Z,100.00
2018-10-11T05:48:56.922Z,100.00
2018-10-11T05:51:25.461Z,100.00
2018-10-11T05:53:55.752Z,100.00
2018-10-11T05:56:25.286Z,100.00
2018-10-11T05:58:53.799Z,100.00
2018-10-11T06:01:22.454Z,100.00
2018-10-11T06:03:50.901Z,100.00
2018-10-11T06:06:19.381Z,100.00
2018-10-11T06:08:47.825Z,100.00
2018-10-11T06:11:16.346Z,100.00
2018-10-11T06:13:45.712Z,100.00
2018-10-11T06:16:14.306Z,100.00
2018-10-11T06:18:42.957Z,100.00
2018-10-11T06:21:11.561Z,100.00
2018-10-11T06:23:40.098Z,100.00
2018-10-11T06:26:08.527Z,100.00
2018-10-11T06:28:37.010Z,100.00
2018-10-11T06:31:05.510Z,100.00
2018-10-11T06:33:33.933Z,100.00
2018-10-11T06:36:02.593Z,100.00
2018-10-11T06:38:31.141Z,100.00
2018-10-11T06:40:59.705Z,100.00
2018-10-11T06:43:28.245Z,100.00
2018-10-11T06:45:56.726Z,100.00
2018-10-11T06:48:25.184Z,100.00
2018-10-11T06:50:53.644Z,100.00
2018-10-11T06:53:22.087Z,100.00
2018-10-11T06:55:50.499Z,100.00
2018-10-11T06:58:18.978Z,100.00
2018-10-11T07:00:47.405Z,100.00
2018-10-11T07:03:15.890Z,100.00
2018-10-11T07:05:44.257Z,100.00
2018-10-11T07:08:12.670Z,100.00
2018-10-11T07:10:41.070Z,100.00
2018-10-11T07:13:09.855Z,100.00
2018-10-11T07:15:38.241Z,100.00
2018-10-11T07:18:06.678Z,100.00
2018-10-11T07:20:35.117Z,100.00
2018-10-11T07:23:03.523Z,100.00
2018-10-11T07:25:31.941Z,100.00
2018-10-11T07:28:00.437Z,100.00
2018-10-11T07:30:28.838Z,100.00
2018-10-11T07:32:57.281Z,100.00
2018-10-11T07:35:25.799Z,100.00
2018-10-11T07:37:54.125Z,100.00
2018-10-11T07:40:22.530Z,100.00
2018-10-11T07:42:50.927Z,100.00
2018-10-11T07:45:19.329Z,100.00
2018-10-11T07:47:47.766Z,100.00
2018-10-11T07:50:16.168Z,100.00
2018-10-11T07:52:44.584Z,100.00
2018-10-11T07:55:13.005Z,100.00
2018-10-11T07:57:41.393Z,100.00
2018-10-11T08:00:12.015Z,100.00
2018-10-11T08:02:42.689Z,100.00
2018-10-11T08:05:11.271Z,100.00
2018-10-11T08:07:39.843Z,100.00
2018-10-11T08:10:08.621Z,100.00
2018-10-11T08:12:37.021Z,100.00
2018-10-11T08:15:05.713Z,100.00
2018-10-11T08:17:34.496Z,100.00
2018-10-11T08:20:02.670Z,100.00
2018-10-11T08:22:30.988Z,100.00
2018-10-11T08:24:59.615Z,100.00
2018-10-11T08:27:27.977Z,100.00
2018-10-11T08:29:56.397Z,100.00
2018-10-11T08:32:24.951Z,100.00
2018-10-11T08:34:53.273Z,100.00
2018-10-11T08:37:21.944Z,100.00
2018-10-11T08:39:50.351Z,100.00
2018-10-11T08:42:18.773Z,100.00
2018-10-11T08:44:47.179Z,100.00
2018-10-11T08:47:15.574Z,100.00
2018-10-11T08:49:43.978Z,100.00
2018-10-11T08:52:12.389Z,100.00
2018-10-11T08:54:47.690Z,100.00
2018-10-11T08:57:16.337Z,100.00
2018-10-11T08:59:45.145Z,100.00
2018-10-11T09:02:13.685Z,100.00
2018-10-11T09:04:42.098Z,100.00
2018-10-11T09:07:10.528Z,100.00
2018-10-11T09:09:39.013Z,100.00
2018-10-11T09:12:07.441Z,100.00
2018-10-11T09:14:36.030Z,100.00
2018-10-11T09:17:04.521Z,100.00
2018-10-11T09:19:32.941Z,100.00
2018-10-11T09:22:01.875Z,100.00
2018-10-11T09:24:30.394Z,100.00
2018-10-11T09:26:59.061Z,100.00
2018-10-11T09:29:27.453Z,100.00
2018-10-11T09:31:55.830Z,100.00
2018-10-11T09:34:24.232Z,100.00
2018-10-11T09:36:52.615Z,100.00
2018-10-11T09:39:21.014Z,100.00
2018-10-11T09:41:49.413Z,100.00
2018-10-11T09:44:17.822Z,100.00
2018-10-11T09:46:46.225Z,100.00
2018-10-11T09:49:14.647Z,100.00
2018-10-11T09:51:43.170Z,100.00
2018-10-11T09:54:11.572Z,100.00
2018-10-11T09:57:14.940Z,100.00
2018-10-11T09:59:43.341Z,100.00
2018-10-11T10:02:12.617Z,100.00
2018-10-11T10:04:49.546Z,100.00
2018-10-11T10:07:17.961Z,100.00
2018-10-11T10:09:46.990Z,100.00
2018-10-11T10:12:15.954Z,100.00
2018-10-11T10:14:45.187Z,100.00
2018-10-11T10:17:13.598Z,100.00
2018-10-11T10:19:42.603Z,100.00
2018-10-11T10:22:10.996Z,100.00
2018-10-11T10:24:39.966Z,100.00
2018-10-11T10:27:08.528Z,100.00
2018-10-11T10:29:36.993Z,100.00
2018-10-11T10:32:05.791Z,100.00
2018-10-11T10:34:34.209Z,100.00
2018-10-11T10:37:02.624Z,100.00
2018-10-11T10:39:31.085Z,100.00
2018-10-11T10:41:59.477Z,100.00
2018-10-11T10:44:27.870Z,100.00
2018-10-11T10:46:56.318Z,100.00
2018-10-11T10:49:24.749Z,100.00
2018-10-11T10:51:53.121Z,100.00
2018-10-11T10:54:27.425Z,100.00
2018-10-11T10:56:56.209Z,100.00
2018-10-11T10:59:24.713Z,100.00
2018-10-11T11:01:53.381Z,100.00
2018-10-11T11:04:21.829Z,100.00
2018-10-11T11:06:50.302Z,100.00
2018-10-11T11:09:18.725Z,100.00
2018-10-11T11:11:47.102Z,100.00
2018-10-11T11:14:16.424Z,100.00
2018-10-11T11:16:45.435Z,100.00
2018-10-11T11:19:14.445Z,100.00
2018-10-11T11:21:42.921Z,100.00
2018-10-11T11:24:11.325Z,99.80
2018-10-11T11:26:39.773Z,100.00
2018-10-11T11:29:08.233Z,99.11
2018-10-11T11:31:36.634Z,100.00
2018-10-11T11:34:05.082Z,100.00
2018-10-11T11:36:33.495Z,100.00
2018-10-11T11:39:01.914Z,100.00
2018-10-11T11:41:30.391Z,100.00
2018-10-11T11:43:58.801Z,100.00
2018-10-11T11:46:27.215Z,100.00
2018-10-11T11:48:55.630Z,100.00
2018-10-11T11:51:24.015Z,100.00
2018-10-11T11:53:52.434Z,100.00
2018-10-11T11:56:20.818Z,100.00
2018-10-11T11:58:49.317Z,100.00
2018-10-11T12:01:17.783Z,100.00
2018-10-11T12:03:46.220Z,100.00
2018-10-11T12:06:14.622Z,100.00
2018-10-11T12:08:43.097Z,100.00
2018-10-11T12:11:11.503Z,100.00
2018-10-11T12:13:39.951Z,100.00
2018-10-11T12:16:08.358Z,100.00
2018-10-11T12:18:36.778Z,100.00
2018-10-11T12:21:05.195Z,100.00
2018-10-11T12:23:33.826Z,100.00
2018-10-11T12:26:02.245Z,100.00
2018-10-11T12:28:30.682Z,100.00
2018-10-11T12:30:59.086Z,100.00
2018-10-11T12:33:27.481Z,100.00
2018-10-11T12:35:55.905Z,100.00
2018-10-11T12:38:24.374Z,100.00
2018-10-11T12:40:52.816Z,100.00
2018-10-11T12:43:21.230Z,100.00
2018-10-11T12:45:49.660Z,100.00
2018-10-11T12:48:18.057Z,100.00
2018-10-11T12:50:46.493Z,100.00
2018-10-11T12:53:14.899Z,100.00
2018-10-11T12:55:43.381Z,100.00
2018-10-11T12:58:11.780Z,100.00
2018-10-11T13:00:40.234Z,100.00
2018-10-11T13:03:09.014Z,100.00
2018-10-11T13:05:37.460Z,100.00
2018-10-11T13:08:05.846Z,100.00
2018-10-11T13:10:34.271Z,100.00
2018-10-11T13:13:04.537Z,100.00
2018-10-11T13:15:31.220Z,100.00
2018-10-11T13:17:59.628Z,100.00
2018-10-11T13:20:28.185Z,100.00
2018-10-11T13:22:56.647Z,100.00
2018-10-11T13:25:25.306Z,100.00
2018-10-11T13:27:53.685Z,100.00
2018-10-11T13:30:22.472Z,100.00
2018-10-11T13:32:51.116Z,100.00
2018-10-11T13:35:19.566Z,100.00
2018-10-11T13:37:47.955Z,100.00
2018-10-11T13:40:16.627Z,100.00
2018-10-11T13:42:45.028Z,100.00
2018-10-11T13:45:13.466Z,100.00
2018-10-11T13:47:45.460Z,100.00
2018-10-11T13:50:11.241Z,100.00
2018-10-11T13:52:39.887Z,100.00
2018-10-11T13:55:13.054Z,100.00
2018-10-11T13:57:38.237Z,100.00
2018-10-11T14:00:08.179Z,99.98
2018-10-11T14:02:36.754Z,98.82
2018-10-11T14:05:05.497Z,99.66
2018-10-11T14:07:35.076Z,99.41
2018-10-11T14:10:03.650Z,100.00
2018-10-11T14:12:32.174Z,100.00
2018-10-11T14:15:00.687Z,100.00
2018-10-11T14:17:29.417Z,100.00
2018-10-11T14:19:57.858Z,100.00
2018-10-11T14:22:26.297Z,100.00
2018-10-11T14:24:55.209Z,100.00
2018-10-11T14:27:23.611Z,100.00
2018-10-11T14:29:52.129Z,100.00
2018-10-11T14:32:20.510Z,100.00
2018-10-11T14:34:48.956Z,100.00
2018-10-11T14:37:17.437Z,100.00
2018-10-11T14:39:45.792Z,100.00
2018-10-11T14:42:14.284Z,100.00
2018-10-11T14:44:42.728Z,100.00
2018-10-11T14:47:11.157Z,100.00
2018-10-11T14:49:39.623Z,100.00
2018-10-11T14:52:12.734Z,100.00
2018-10-11T14:54:41.537Z,100.00
2018-10-11T14:57:10.922Z,100.00
2018-10-11T14:59:40.192Z,100.00
2018-10-11T15:02:10.809Z,100.00
2018-10-11T15:04:39.488Z,100.00
2018-10-11T15:07:08.497Z,100.00
2018-10-11T15:09:37.203Z,100.00
2018-10-11T15:12:05.963Z,100.00
2018-10-11T15:14:34.561Z,100.00
2018-10-11T15:17:03.738Z,100.00
2018-10-11T15:19:32.602Z,87.30
2018-10-11T15:22:01.507Z,74.98
2018-10-11T15:24:30.243Z,71.61
2018-10-11T15:26:59.406Z,76.32
2018-10-11T15:29:28.298Z,79.54
2018-10-11T15:31:57.012Z,76.60
2018-10-11T15:34:25.738Z,69.80
2018-10-11T15:39:31.481Z,68.10
2018-10-11T15:42:00.334Z,66.44
2018-10-11T15:44:28.841Z,64.09
2018-10-11T15:46:57.370Z,63.75
2018-10-11T15:49:25.853Z,63.47
2018-10-11T15:51:54.774Z,63.34
2018-10-11T15:54:23.390Z,64.80
2018-10-11T15:56:51.808Z,65.80
2018-10-11T15:59:30.473Z,71.57
2018-10-11T16:01:58.948Z,73.20
2018-10-11T16:04:27.674Z,76.80
2018-10-11T16:06:56.137Z,81.60
2018-10-11T16:09:24.691Z,83.88
2018-10-11T16:11:53.334Z,87.45
2018-10-11T16:14:28.477Z,89.76
2018-10-11T16:16:57.177Z,94.84
2018-10-11T16:19:25.606Z,98.15
2018-10-11T16:21:53.982Z,100.00
2018-10-11T16:24:22.422Z,100.00
2018-10-11T16:26:50.859Z,100.00
2018-10-11T16:29:19.374Z,100.00
2018-10-11T16:31:47.769Z,100.00
2018-10-11T16:34:16.165Z,100.00
2018-10-11T16:36:45.213Z,100.00
2018-10-11T16:39:13.823Z,100.00
2018-10-11T16:41:42.197Z,100.00
2018-10-11T16:44:10.600Z,100.00
2018-10-11T16:46:39.109Z,100.00
2018-10-11T16:49:07.547Z,100.00
2018-10-11T16:51:36.005Z,100.00
2018-10-11T16:54:04.378Z,100.00
2018-10-11T16:56:32.825Z,100.00
2018-10-11T16:59:01.206Z,100.00
2018-10-11T17:01:29.634Z,100.00
2018-10-11T17:03:58.025Z,100.00
2018-10-11T17:06:26.433Z,100.00
2018-10-11T17:08:54.821Z,100.00
2018-10-11T17:11:23.191Z,100.00
2018-10-11T17:13:51.618Z,100.00
2018-10-11T17:16:20.046Z,100.00
2018-10-11T17:18:48.534Z,100.00
2018-10-11T17:21:16.944Z,100.00
2018-10-11T17:23:45.363Z,100.00
2018-10-11T17:26:13.845Z,100.00
2018-10-11T17:28:42.248Z,100.00
2018-10-11T17:31:10.722Z,100.00
2018-10-11T17:33:39.195Z,100.00
2018-10-11T17:36:07.742Z,100.00
2018-10-11T17:38:36.489Z,100.00
2018-10-11T17:41:04.902Z,100.00
2018-10-11T17:43:33.298Z,100.00
2018-10-11T17:46:01.713Z,100.00
2018-10-11T17:48:30.098Z,100.00
2018-10-11T17:50:58.514Z,100.00
2018-10-11T17:53:27.100Z,100.00
2018-10-11T17:55:55.513Z,100.00
2018-10-11T17:58:23.957Z,100.00
2018-10-11T18:00:52.345Z,100.00
2018-10-11T18:03:20.797Z,100.00
2018-10-11T18:05:49.350Z,100.00
2018-10-11T18:08:17.779Z,100.00
2018-10-11T18:10:46.163Z,100.00
2018-10-11T18:13:14.591Z,100.00
2018-10-11T18:15:44.654Z,100.00
2018-10-11T18:18:13.298Z,100.00
2018-10-11T18:20:41.771Z,100.00
2018-10-11T18:23:10.226Z,100.00
2018-10-11T18:25:38.601Z,100.00
2018-10-11T18:28:08.534Z,100.00
2018-10-11T18:30:37.013Z,100.00
2018-10-11T18:33:05.673Z,100.00
2018-10-11T18:35:34.065Z,100.00
2018-10-11T18:38:02.494Z,100.00
2018-10-11T18:40:30.882Z,100.00
2018-10-11T18:42:59.299Z,100.00
2018-10-11T18:45:27.743Z,100.00
2018-10-11T18:47:56.157Z,100.00
2018-10-11T18:50:24.895Z,100.00
2018-10-11T18:52:53.277Z,100.00
2018-10-11T18:55:22.363Z,100.00
2018-10-11T18:57:50.868Z,100.00
2018-10-11T19:00:19.326Z,100.00
2018-10-11T19:02:47.744Z,100.00
2018-10-11T19:05:16.145Z,100.00
2018-10-11T19:07:44.566Z,100.00
2018-10-11T19:10:12.974Z,100.00
2018-10-11T19:12:41.422Z,100.00
2018-10-11T19:15:09.931Z,100.00
2018-10-11T19:17:38.336Z,100.00
2018-10-11T19:20:06.801Z,100.00
2018-10-11T19:22:35.210Z,100.00
2018-10-11T19:25:03.670Z,100.00
2018-10-11T19:27:32.173Z,100.00
2018-10-11T19:30:00.575Z,100.00
2018-10-11T19:32:29.737Z,100.00
2018-10-11T19:34:58.129Z,100.00
2018-10-11T19:37:26.569Z,100.00
2018-10-11T19:39:54.993Z,100.00
2018-10-11T19:42:23.469Z,100.00
2018-10-11T19:44:52.396Z,100.00
2018-10-11T19:47:20.854Z,100.00
2018-10-11T19:49:49.305Z,100.00
2018-10-11T19:52:17.725Z,100.00
2018-10-11T19:54:46.150Z,100.00
2018-10-11T19:57:14.570Z,100.00
2018-10-11T19:59:43.001Z,100.00
2018-10-11T20:02:11.498Z,100.00
2018-10-11T20:04:39.884Z,100.00
2018-10-11T20:07:08.320Z,100.00
2018-10-11T20:09:36.907Z,100.00
2018-10-11T20:12:05.522Z,100.00
2018-10-11T20:14:34.178Z,100.00
2018-10-11T20:17:02.648Z,100.00
2018-10-11T20:19:31.086Z,100.00
2018-10-11T20:21:59.701Z,100.00
2018-10-11T20:24:28.209Z,100.00
2018-10-11T20:26:56.962Z,100.00
2018-10-11T20:29:25.422Z,100.00
2018-10-11T20:31:53.777Z,100.00
2018-10-11T20:34:22.164Z,100.00
2018-10-11T20:36:50.618Z,100.00
2018-10-11T20:39:19.095Z,100.00
2018-10-11T20:41:47.524Z,100.00
2018-10-11T20:44:15.917Z,100.00
2018-10-11T20:46:44.325Z,100.00
2018-10-11T20:49:12.831Z,100.00
2018-10-11T20:51:41.371Z,100.00
2018-10-11T20:54:09.713Z,100.00
2018-10-11T20:56:38.078Z,100.00
2018-10-11T20:59:07.023Z,100.00
2018-10-11T21:01:35.404Z,100.00
2018-10-11T21:04:03.841Z,100.00
2018-10-11T21:06:32.236Z,100.00
2018-10-11T21:09:00.754Z,100.00
2018-10-11T21:11:35.718Z,100.00
2018-10-11T21:14:04.158Z,100.00
2018-10-11T21:16:32.598Z,100.00
2018-10-11T21:19:01.041Z,100.00
2018-10-11T21:21:29.866Z,100.00
2018-10-11T21:23:58.434Z,100.00
2018-10-11T21:26:26.879Z,100.00
2018-10-11T21:28:55.263Z,100.00
2018-10-11T21:31:23.661Z,100.00
2018-10-11T21:33:52.085Z,100.00
2018-10-11T21:36:20.482Z,100.00
2018-10-11T21:38:48.941Z,100.00
2018-10-11T21:41:17.310Z,100.00
2018-10-11T21:43:45.724Z,100.00
2018-10-11T21:46:14.202Z,100.00
2018-10-11T21:48:42.612Z,100.00
2018-10-11T21:51:11.059Z,100.00
2018-10-11T21:53:39.507Z,100.00
2018-10-11T21:56:07.877Z,100.00
2018-10-11T21:58:36.265Z,100.00
2018-10-11T22:01:09.993Z,100.00
2018-10-11T22:03:38.402Z,100.00
2018-10-11T22:06:06.820Z,100.00
2018-10-11T22:08:35.391Z,100.00
2018-10-11T22:11:03.694Z,100.00
2018-10-11T22:13:32.095Z,100.00
2018-10-11T22:16:00.573Z,100.00
2018-10-11T22:18:29.156Z,100.00
2018-10-11T22:20:58.117Z,100.00
2018-10-11T22:23:26.755Z,100.00
2018-10-11T22:25:55.264Z,100.00
2018-10-11T22:28:30.193Z,100.00
2018-10-11T22:30:58.861Z,100.00
2018-10-11T22:33:27.562Z,100.00
2018-10-11T22:35:56.084Z,100.00
2018-10-11T22:38:24.488Z,100.00
2018-10-11T22:40:53.017Z,100.00
2018-10-11T22:43:21.429Z,100.00
2018-10-11T22:45:49.906Z,100.00
2018-10-11T22:48:18.330Z,100.00
2018-10-11T22:50:46.781Z,100.00
2018-10-11T22:53:15.210Z,100.00
2018-10-11T22:55:43.630Z,100.00
2018-10-11T22:58:12.046Z,100.00
2018-10-11T23:00:40.481Z,100.00
2018-10-11T23:03:09.140Z,100.00
2018-10-11T23:05:37.582Z,100.00
2018-10-11T23:08:05.982Z,100.00
2018-10-11T23:10:34.505Z,100.00
2018-10-11T23:13:02.921Z,100.00
2018-10-11T23:15:31.355Z,100.00
2018-10-11T23:17:59.805Z,100.00
2018-10-11T23:20:28.213Z,100.00
2018-10-11T23:22:56.648Z,100.00
2018-10-11T23:25:25.074Z,100.00
2018-10-11T23:27:53.551Z,100.00
2018-10-11T23:30:21.986Z,100.00
2018-10-11T23:32:50.367Z,100.00
2018-10-11T23:35:18.757Z,100.00
2018-10-11T23:37:47.144Z,100.00
2018-10-11T23:40:15.541Z,100.00
2018-10-11T23:42:43.930Z,100.00
2018-10-11T23:45:13.130Z,100.00
2018-10-11T23:47:42.316Z,100.00
2018-10-11T23:50:10.768Z,100.00
2018-10-11T23:52:39.242Z,100.00
2018-10-11T23:55:07.974Z,100.00
2018-10-11T23:57:36.544Z,100.00
